Terminal Aerodrome Forecast
Issued by NWS Chicago, IL

Home | Current Version | Previous Version | Text Only | Print | Product List | Glossary Off
Versions: 1 2 3 4 5 6 7 8 9 10 11 12 13 14 15 16 17 18 19 20 21 22 23 24 25 26

509
FTUS43 KLOT 140303 AAA
TAFRFD
TAF AMD
KRFD 140303Z 1403/1424 03007KT P6SM SCT015 BKN080
      TEMPO 1403/1406 BKN015
     FM140600 07005KT P6SM FEW020 BKN080
     FM141000 VRB03KT P6SM BKN050 OVC100
     FM141800 32006KT P6SM SCT050 BKN200=

USA.gov is the U.S. government's official web portal to all federal, state and local government web resources and services.